Time;durP1;ratioP1;P1;durP2;ratioP2;P2;SDS_P1;SDS_P2;PMS_P1;PMS_P2;Temp;Humidity;BMP_temperature;BMP_pressure;BME280_temperature;BME280_humidity;BME280_pressure;Samples;Min_cycle;Max_cycle;Signal;HPM_P1;HPM_P2
2021/03/03 00:00:39;;;;;;;16.03;10.47;;;8.20;99.90;;;;;;4970890;28;20523;-77
2021/03/03 00:03:05;;;;;;;24.87;11.67;;;8.20;99.90;;;;;;4977635;28;20787;-77
2021/03/03 00:05:30;;;;;;;21.00;11.57;;;8.20;99.90;;;;;;4978619;28;20732;-76
2021/03/03 00:07:56;;;;;;;20.43;11.37;;;8.20;99.90;;;;;;4974244;28;20214;-77
2021/03/03 00:10:22;;;;;;;17.10;10.97;;;8.10;99.90;;;;;;4972539;28;20553;-77
2021/03/03 00:12:48;;;;;;;21.27;14.70;;;8.10;99.90;;;;;;4969527;28;20566;-77
2021/03/03 00:15:14;;;;;;;25.00;12.37;;;8.00;99.90;;;;;;4978748;28;20184;-76
2021/03/03 00:17:40;;;;;;;21.57;12.13;;;7.90;99.90;;;;;;4978791;28;20404;-77
2021/03/03 00:20:06;;;;;;;17.73;12.00;;;7.80;99.90;;;;;;4976924;28;20428;-77
2021/03/03 00:22:32;;;;;;;24.37;13.20;;;7.80;99.90;;;;;;4973294;28;20240;-77
2021/03/03 00:24:57;;;;;;;18.10;11.97;;;7.80;99.90;;;;;;4975471;28;20468;-77
2021/03/03 00:27:23;;;;;;;22.67;12.83;;;7.80;99.90;;;;;;4974630;28;20182;-77
2021/03/03 00:29:48;;;;;;;18.03;11.80;;;7.80;99.90;;;;;;4972528;28;20242;-78
2021/03/03 00:32:14;;;;;;;28.40;14.17;;;7.80;99.90;;;;;;4951782;28;20186;-78
2021/03/03 00:34:40;;;;;;;21.93;14.17;;;7.80;99.90;;;;;;4956437;28;20189;-77
2021/03/03 00:37:05;;;;;;;23.93;13.80;;;7.70;99.90;;;;;;4971307;28;20205;-77
2021/03/03 00:39:31;;;;;;;21.13;12.50;;;7.70;99.90;;;;;;4972940;28;20256;-77
2021/03/03 00:41:56;;;;;;;28.50;13.83;;;7.70;99.90;;;;;;4973487;28;20208;-78
2021/03/03 00:44:22;;;;;;;26.30;14.53;;;7.60;99.90;;;;;;4970808;28;20213;-77
2021/03/03 00:46:48;;;;;;;22.90;13.80;;;7.60;99.90;;;;;;4976924;28;20209;-77
2021/03/03 00:49:13;;;;;;;23.73;14.20;;;7.60;99.90;;;;;;4947772;28;20185;-77
2021/03/03 00:51:39;;;;;;;26.43;13.70;;;7.50;99.90;;;;;;4976376;28;20543;-79
2021/03/03 00:54:04;;;;;;;21.23;14.23;;;7.60;99.90;;;;;;4953710;28;20233;-78
2021/03/03 00:56:30;;;;;;;23.17;13.00;;;7.50;99.90;;;;;;4959792;28;20206;-77
2021/03/03 00:58:55;;;;;;;22.00;13.00;;;7.40;99.90;;;;;;4962929;28;20282;-78
2021/03/03 01:01:22;;;;;;;24.77;14.67;;;7.50;99.90;;;;;;4970080;28;20217;-78
2021/03/03 01:03:48;;;;;;;17.90;12.53;;;7.40;99.90;;;;;;4976674;28;20264;-78
2021/03/03 01:06:14;;;;;;;17.80;12.47;;;7.40;99.90;;;;;;4977138;28;20480;-77
2021/03/03 01:08:40;;;;;;;22.40;14.50;;;7.30;99.90;;;;;;4973274;28;20172;-77
2021/03/03 01:11:06;;;;;;;31.93;14.90;;;7.30;99.90;;;;;;4971673;28;20433;-77
2021/03/03 01:13:32;;;;;;;18.47;13.97;;;7.20;99.90;;;;;;4938515;28;20496;-77
2021/03/03 01:15:57;;;;;;;23.47;13.93;;;7.20;99.90;;;;;;4949035;28;20535;-77
2021/03/03 01:18:23;;;;;;;23.13;14.03;;;7.20;99.90;;;;;;4974472;28;20237;-77
2021/03/03 01:20:49;;;;;;;27.30;15.53;;;7.20;99.90;;;;;;4974290;28;20599;-77
2021/03/03 01:23:14;;;;;;;29.97;14.40;;;7.20;99.90;;;;;;4973090;28;20181;-77
2021/03/03 01:25:40;;;;;;;21.20;13.87;;;7.20;99.90;;;;;;4974526;28;20275;-77
2021/03/03 01:28:05;;;;;;;24.57;15.37;;;7.30;99.90;;;;;;4957068;28;20627;-77
2021/03/03 01:30:31;;;;;;;26.27;15.20;;;7.20;99.90;;;;;;4973400;28;20173;-77
2021/03/03 01:32:57;;;;;;;23.90;14.97;;;7.10;99.90;;;;;;4954663;28;20216;-78
2021/03/03 01:35:22;;;;;;;20.33;11.97;;;7.10;99.90;;;;;;4959138;28;20578;-77
2021/03/03 01:37:48;;;;;;;21.80;13.60;;;7.20;99.90;;;;;;4967175;28;20225;-77
2021/03/03 01:40:15;;;;;;;26.40;14.17;;;7.20;99.90;;;;;;4968500;28;20185;-77
2021/03/03 01:42:41;;;;;;;25.23;14.57;;;7.20;99.90;;;;;;4973141;28;20220;-77
2021/03/03 01:45:07;;;;;;;25.47;14.37;;;7.10;99.90;;;;;;4958381;28;20548;-77
2021/03/03 01:47:33;;;;;;;22.50;15.60;;;7.00;99.90;;;;;;4968861;28;20183;-77
2021/03/03 01:49:58;;;;;;;20.37;14.90;;;6.90;99.90;;;;;;4965694;28;20432;-77
2021/03/03 01:52:24;;;;;;;25.53;15.83;;;6.90;99.90;;;;;;4972971;28;20201;-77
2021/03/03 01:54:50;;;;;;;28.43;16.50;;;7.00;99.90;;;;;;4962187;28;20178;-77
2021/03/03 01:57:16;;;;;;;22.33;15.10;;;7.00;99.90;;;;;;4971831;28;20212;-77
2021/03/03 01:59:42;;;;;;;22.20;15.17;;;7.00;99.90;;;;;;4965422;28;20183;-78
2021/03/03 02:02:07;;;;;;;20.27;14.17;;;7.00;99.90;;;;;;4953887;28;20495;-77
2021/03/03 02:04:36;;;;;;;28.87;15.07;;;7.00;99.90;;;;;;4972537;28;20209;-77
2021/03/03 02:07:09;;;;;;;27.43;15.60;;;7.00;99.90;;;;;;4948817;28;20267;-77
2021/03/03 02:09:50;;;;;;;22.17;14.33;;;7.00;99.90;;;;;;4960348;28;20898;-77
2021/03/03 02:12:20;;;;;;;24.00;14.87;;;6.90;99.90;;;;;;4963543;28;20430;-78
2021/03/03 02:14:50;;;;;;;26.83;15.00;;;6.90;99.90;;;;;;4967102;28;20442;-77
2021/03/03 02:17:17;;;;;;;24.23;16.63;;;7.00;99.90;;;;;;4971049;28;20452;-77
2021/03/03 02:19:44;;;;;;;24.83;14.73;;;6.90;99.90;;;;;;4959987;28;20433;-77
2021/03/03 02:22:26;;;;;;;20.97;13.27;;;6.80;99.90;;;;;;4968667;28;22166;-77
2021/03/03 02:24:57;;;;;;;25.77;15.30;;;6.80;99.90;;;;;;4964878;28;20468;-77
2021/03/03 02:27:23;;;;;;;26.90;15.53;;;6.80;99.90;;;;;;4956245;28;20421;-77
2021/03/03 02:29:50;;;;;;;31.83;17.80;;;6.70;99.90;;;;;;4970467;28;20460;-77
2021/03/03 02:32:18;;;;;;;31.37;15.07;;;6.70;99.90;;;;;;4971353;28;20441;-77
2021/03/03 02:34:45;;;;;;;28.00;14.50;;;6.70;99.90;;;;;;4960257;28;20461;-77
2021/03/03 02:37:17;;;;;;;28.90;15.50;;;6.60;99.90;;;;;;4954648;28;20564;-77
2021/03/03 02:39:44;;;;;;;29.10;15.43;;;6.60;99.90;;;;;;4970199;28;20437;-77
2021/03/03 02:42:12;;;;;;;23.03;14.17;;;6.50;99.90;;;;;;4973044;28;20429;-77
2021/03/03 02:44:40;;;;;;;23.77;14.40;;;6.40;99.90;;;;;;4971241;28;20819;-77
2021/03/03 02:47:06;;;;;;;27.90;16.10;;;6.40;99.90;;;;;;4972903;28;20452;-77
2021/03/03 02:49:32;;;;;;;23.43;15.90;;;6.30;99.90;;;;;;4972991;28;20483;-78
2021/03/03 02:51:58;;;;;;;33.20;16.77;;;6.30;99.90;;;;;;4955520;28;20188;-77
2021/03/03 02:54:23;;;;;;;28.17;15.90;;;6.40;99.90;;;;;;4972859;28;20429;-77
2021/03/03 02:56:49;;;;;;;26.40;15.70;;;6.40;99.90;;;;;;4971289;28;20251;-77
2021/03/03 02:59:50;;;;;;;22.40;14.60;;;6.30;99.90;;;;;;4972835;28;20185;-77
2021/03/03 03:02:20;;;;;;;24.40;15.63;;;6.40;99.90;;;;;;4972625;28;20181;-77
2021/03/03 03:04:47;;;;;;;20.10;14.13;;;6.40;99.90;;;;;;4973027;28;20547;-77
2021/03/03 03:07:18;;;;;;;25.43;14.97;;;6.40;99.90;;;;;;4972700;28;20957;-77
2021/03/03 03:09:45;;;;;;;21.73;14.27;;;6.50;99.90;;;;;;4972570;28;20421;-77
2021/03/03 03:12:12;;;;;;;26.57;14.77;;;6.40;99.90;;;;;;4972693;28;20425;-77
2021/03/03 03:14:39;;;;;;;30.87;15.17;;;6.40;99.90;;;;;;4955357;28;20941;-77
2021/03/03 03:17:07;;;;;;;25.67;14.63;;;6.50;99.90;;;;;;4955412;28;20449;-77
2021/03/03 03:19:37;;;;;;;24.03;15.30;;;6.40;99.90;;;;;;4972525;28;21032;-77
2021/03/03 03:22:03;;;;;;;26.33;15.70;;;6.40;99.90;;;;;;4972580;28;20468;-77
2021/03/03 03:24:30;;;;;;;25.60;15.93;;;6.40;99.90;;;;;;4972480;28;20824;-77
2021/03/03 03:26:57;;;;;;;30.00;16.03;;;6.30;99.90;;;;;;4972595;28;20460;-77
2021/03/03 03:29:24;;;;;;;28.37;15.73;;;6.20;99.90;;;;;;4972336;28;20476;-77
2021/03/03 03:31:50;;;;;;;24.00;15.57;;;6.30;99.90;;;;;;4972157;28;20428;-77
2021/03/03 03:34:17;;;;;;;27.87;15.67;;;6.30;99.90;;;;;;4972822;28;20416;-78
2021/03/03 03:36:43;;;;;;;24.73;15.60;;;6.20;99.90;;;;;;4972869;28;20435;-77
2021/03/03 03:39:10;;;;;;;22.63;15.70;;;6.20;99.90;;;;;;4972601;28;20810;-77
2021/03/03 03:41:36;;;;;;;27.33;15.03;;;6.20;99.90;;;;;;4972291;28;20432;-77
2021/03/03 03:44:04;;;;;;;22.33;18.10;;;6.20;99.90;;;;;;4972079;28;20645;-77
2021/03/03 03:46:32;;;;;;;21.80;13.80;;;6.20;99.90;;;;;;4972410;28;20444;-77
2021/03/03 03:48:58;;;;;;;26.43;15.70;;;6.20;99.90;;;;;;4971390;28;20794;-77
2021/03/03 03:51:24;;;;;;;28.30;14.90;;;6.10;99.90;;;;;;4972131;28;20431;-77
2021/03/03 03:53:50;;;;;;;36.33;16.97;;;6.10;99.90;;;;;;4972376;28;20429;-77
2021/03/03 03:56:15;;;;;;;26.20;16.23;;;6.10;99.90;;;;;;4973627;28;20444;-78
2021/03/03 03:58:41;;;;;;;20.37;13.17;;;6.10;99.90;;;;;;4976080;28;20553;-78
2021/03/03 04:01:06;;;;;;;26.50;15.60;;;6.10;99.90;;;;;;4974402;28;20181;-77
2021/03/03 04:03:33;;;;;;;25.30;14.67;;;6.10;99.90;;;;;;4975945;28;20201;-77
2021/03/03 04:06:02;;;;;;;25.07;15.60;;;6.10;99.90;;;;;;4975923;28;20194;-77
2021/03/03 04:08:27;;;;;;;28.40;16.60;;;6.10;99.90;;;;;;4975944;28;20426;-77
2021/03/03 04:10:53;;;;;;;28.73;15.50;;;6.10;99.90;;;;;;4957985;28;20515;-77
2021/03/03 04:13:19;;;;;;;34.83;15.27;;;6.10;99.90;;;;;;4958484;28;20177;-77
2021/03/03 04:15:44;;;;;;;26.17;15.47;;;6.10;99.90;;;;;;4975764;28;20197;-77
2021/03/03 04:18:11;;;;;;;29.57;16.90;;;6.00;99.90;;;;;;4975805;28;20182;-77
2021/03/03 04:20:37;;;;;;;29.87;17.03;;;6.00;99.90;;;;;;4958035;28;20174;-77
2021/03/03 04:23:03;;;;;;;23.40;15.63;;;6.00;99.90;;;;;;4958220;28;20425;-77
2021/03/03 04:25:28;;;;;;;20.87;13.57;;;6.00;99.90;;;;;;4974011;28;20698;-77
2021/03/03 04:27:54;;;;;;;26.17;15.87;;;6.00;99.90;;;;;;4958095;28;20182;-77
2021/03/03 04:30:20;;;;;;;27.00;15.77;;;6.10;99.90;;;;;;4975035;28;20548;-77
2021/03/03 04:32:46;;;;;;;25.50;15.30;;;6.00;99.90;;;;;;4958077;28;20187;-77
2021/03/03 04:35:11;;;;;;;26.10;14.83;;;6.10;99.90;;;;;;4975334;28;20428;-77
2021/03/03 04:37:38;;;;;;;26.93;16.23;;;6.20;99.90;;;;;;4975438;28;20264;-77
2021/03/03 04:40:06;;;;;;;22.17;14.67;;;6.20;99.90;;;;;;4974981;28;20182;-77
2021/03/03 04:42:32;;;;;;;23.00;14.83;;;6.20;99.90;;;;;;4967714;28;20433;-77
2021/03/03 04:44:57;;;;;;;22.80;15.20;;;6.30;99.90;;;;;;4975098;28;20471;-77
2021/03/03 04:47:23;;;;;;;29.60;14.80;;;6.30;99.90;;;;;;4975077;28;20184;-77
2021/03/03 04:49:48;;;;;;;32.83;15.10;;;6.20;99.90;;;;;;4965402;28;20183;-77
2021/03/03 04:52:14;;;;;;;30.10;15.50;;;6.20;99.90;;;;;;4955550;28;20178;-78
2021/03/03 04:54:39;;;;;;;25.87;15.20;;;6.20;99.90;;;;;;4975005;28;20258;-77
2021/03/03 04:57:05;;;;;;;24.90;14.70;;;6.20;99.90;;;;;;4957828;28;20209;-78
2021/03/03 04:59:31;;;;;;;28.73;16.50;;;6.20;99.90;;;;;;4974180;28;20285;-77
2021/03/03 05:01:57;;;;;;;31.97;14.80;;;6.20;99.90;;;;;;4960770;28;20518;-77
2021/03/03 05:04:23;;;;;;;28.47;14.10;;;6.20;99.90;;;;;;4973890;28;20885;-77
2021/03/03 05:06:49;;;;;;;30.67;16.27;;;6.20;99.90;;;;;;4971196;28;20515;-77
2021/03/03 05:09:15;;;;;;;26.23;15.07;;;6.20;99.90;;;;;;4968206;28;20421;-77
2021/03/03 05:11:40;;;;;;;37.90;15.77;;;6.10;99.90;;;;;;4970986;28;20186;-77
2021/03/03 05:14:06;;;;;;;27.10;17.03;;;6.10;99.90;;;;;;4973919;28;20181;-77
2021/03/03 05:16:31;;;;;;;24.83;15.60;;;6.10;99.90;;;;;;4973481;28;20197;-77
2021/03/03 05:18:57;;;;;;;24.77;15.27;;;6.10;99.90;;;;;;4972372;28;20273;-77
2021/03/03 05:21:22;;;;;;;29.60;15.60;;;6.10;99.90;;;;;;4969121;28;20177;-77
2021/03/03 05:23:48;;;;;;;28.93;17.87;;;6.20;99.90;;;;;;4957976;28;20208;-76
2021/03/03 05:26:14;;;;;;;24.77;13.37;;;6.20;99.90;;;;;;4970135;28;20201;-76
2021/03/03 05:28:39;;;;;;;24.63;14.67;;;6.20;99.90;;;;;;4974317;28;20710;-76
2021/03/03 05:31:05;;;;;;;20.73;14.40;;;6.20;99.90;;;;;;4973832;28;20690;-76
2021/03/03 05:33:32;;;;;;;24.40;15.50;;;6.20;99.90;;;;;;4965127;28;20185;-76
2021/03/03 05:36:03;;;;;;;27.47;16.00;;;6.30;99.90;;;;;;4973350;28;20244;-76
2021/03/03 05:38:29;;;;;;;21.57;16.00;;;6.30;99.90;;;;;;4966419;28;20448;-76
2021/03/03 05:40:57;;;;;;;29.47;16.97;;;6.20;99.90;;;;;;4955416;28;20788;-77
2021/03/03 05:43:23;;;;;;;22.73;15.60;;;6.20;99.90;;;;;;4973768;28;20177;-76
2021/03/03 05:45:50;;;;;;;36.83;17.40;;;6.20;99.90;;;;;;4973886;28;20447;-76
2021/03/03 05:48:27;;;;;;;28.33;17.90;;;6.20;99.90;;;;;;4973727;28;20181;-76
2021/03/03 05:50:57;;;;;;;25.07;16.87;;;6.30;99.90;;;;;;4974192;28;20420;-76
2021/03/03 05:53:27;;;;;;;27.63;16.17;;;6.30;99.90;;;;;;4973903;28;20420;-76
2021/03/03 05:55:57;;;;;;;26.37;15.23;;;6.20;99.90;;;;;;4950999;28;20434;-76
2021/03/03 05:58:24;;;;;;;24.53;15.70;;;6.30;99.90;;;;;;4962156;28;20470;-76
2021/03/03 06:00:50;;;;;;;27.10;16.23;;;6.20;99.90;;;;;;4968954;28;20443;-76
2021/03/03 06:03:19;;;;;;;26.63;14.70;;;6.20;99.90;;;;;;4964488;28;20409;-76
2021/03/03 06:05:48;;;;;;;33.07;17.13;;;6.20;99.90;;;;;;4974150;28;20444;-76
2021/03/03 06:08:15;;;;;;;22.73;14.50;;;6.30;99.90;;;;;;4962613;28;20511;-76
2021/03/03 06:10:41;;;;;;;26.97;15.37;;;6.30;99.90;;;;;;4967722;28;21001;-76
2021/03/03 06:13:07;;;;;;;25.17;15.17;;;6.20;99.90;;;;;;4970619;28;20470;-76
2021/03/03 06:15:32;;;;;;;23.67;14.50;;;6.20;99.90;;;;;;4962359;28;20457;-76
2021/03/03 06:17:58;;;;;;;26.17;15.83;;;6.20;99.90;;;;;;4967789;28;20170;-76
2021/03/03 06:20:24;;;;;;;24.37;15.87;;;6.20;99.90;;;;;;4971207;28;20217;-76
2021/03/03 06:22:50;;;;;;;30.10;16.70;;;6.20;99.90;;;;;;4972422;28;20460;-76
2021/03/03 06:25:21;;;;;;;26.17;14.30;;;6.20;99.90;;;;;;4967631;28;20562;-76
2021/03/03 06:27:47;;;;;;;26.13;15.20;;;6.20;99.90;;;;;;4972819;28;20188;-76
2021/03/03 06:30:17;;;;;;;24.20;15.03;;;6.20;99.90;;;;;;4956333;28;20414;-76
2021/03/03 06:33:04;;;;;;;24.23;15.93;;;6.30;99.90;;;;;;4965749;28;20181;-76
2021/03/03 06:35:37;;;;;;;23.90;14.20;;;6.30;99.90;;;;;;4959279;28;20444;-76
2021/03/03 06:38:03;;;;;;;29.93;15.03;;;6.40;99.90;;;;;;4973172;28;20424;-76
2021/03/03 06:40:29;;;;;;;27.80;15.80;;;6.30;99.90;;;;;;4953832;28;20511;-77
2021/03/03 06:42:55;;;;;;;26.90;15.90;;;6.40;99.90;;;;;;4969208;28;20523;-77
2021/03/03 06:45:30;;;;;;;37.30;15.93;;;6.40;99.90;;;;;;4971710;28;20205;-76
2021/03/03 06:47:56;;;;;;;27.07;15.90;;;6.50;99.90;;;;;;4971752;28;20790;-76
2021/03/03 06:50:32;;;;;;;28.33;16.33;;;6.50;99.90;;;;;;4971443;28;20769;-76
2021/03/03 06:52:57;;;;;;;31.73;18.00;;;6.50;99.90;;;;;;4942518;29;20413;-76
2021/03/03 06:55:23;;;;;;;26.27;16.17;;;6.50;99.90;;;;;;4949503;28;20460;-76
2021/03/03 06:57:49;;;;;;;30.07;14.97;;;6.40;99.90;;;;;;4972566;28;20182;-76
2021/03/03 07:00:15;;;;;;;25.60;15.87;;;6.40;99.90;;;;;;4971527;28;20671;-77
2021/03/03 07:02:43;;;;;;;26.17;16.10;;;6.30;99.90;;;;;;4972058;28;20599;-76
2021/03/03 07:05:10;;;;;;;24.77;16.20;;;6.30;99.90;;;;;;4967951;28;21028;-76
2021/03/03 07:07:36;;;;;;;24.53;15.47;;;6.40;99.90;;;;;;4968158;28;20434;-76
2021/03/03 07:10:04;;;;;;;21.23;14.50;;;6.50;99.90;;;;;;4962927;28;21012;-76
2021/03/03 07:12:33;;;;;;;24.07;15.33;;;6.60;99.90;;;;;;4969214;28;20261;-76
2021/03/03 07:15:04;;;;;;;25.40;14.33;;;6.60;99.90;;;;;;4972460;28;20484;-76
2021/03/03 07:17:38;;;;;;;26.30;16.17;;;6.70;99.90;;;;;;4955722;28;20926;-77
2021/03/03 07:20:06;;;;;;;27.93;15.47;;;6.80;99.90;;;;;;4958220;28;20434;-77
2021/03/03 07:22:37;;;;;;;24.70;15.20;;;6.70;99.90;;;;;;4968250;28;20437;-77
2021/03/03 07:25:13;;;;;;;24.47;18.27;;;6.70;99.90;;;;;;4957625;28;20464;-78
2021/03/03 07:27:44;;;;;;;27.20;16.33;;;6.70;99.90;;;;;;4961845;28;20426;-77
2021/03/03 07:30:13;;;;;;;24.40;14.97;;;6.80;99.90;;;;;;4955479;28;20841;-76
2021/03/03 07:32:39;;;;;;;23.30;15.80;;;6.90;99.90;;;;;;4967313;28;20773;-76
2021/03/03 07:35:07;;;;;;;30.60;16.17;;;7.00;99.90;;;;;;4972334;28;20796;-76
2021/03/03 07:37:38;;;;;;;31.10;17.10;;;7.00;99.90;;;;;;4964281;28;20441;-76
2021/03/03 07:40:13;;;;;;;31.53;16.57;;;6.90;99.90;;;;;;4957551;28;20430;-76
2021/03/03 07:42:40;;;;;;;33.30;16.17;;;7.10;99.90;;;;;;4973122;28;20427;-76
2021/03/03 07:45:08;;;;;;;24.00;14.97;;;7.30;99.90;;;;;;4943141;28;20489;-77
2021/03/03 07:47:36;;;;;;;24.20;14.80;;;7.50;99.90;;;;;;4953583;28;20949;-77
2021/03/03 07:50:28;;;;;;;24.20;16.60;;;7.60;99.90;;;;;;4970388;28;20436;-77
2021/03/03 07:52:56;;;;;;;25.20;16.30;;;7.80;99.90;;;;;;4955241;28;20436;-77
2021/03/03 07:55:22;;;;;;;24.27;15.50;;;8.00;99.90;;;;;;4965502;28;20459;-77
2021/03/03 07:57:51;;;;;;;30.23;16.00;;;8.20;99.90;;;;;;4973487;28;20428;-77
2021/03/03 08:00:25;;;;;;;25.13;16.17;;;8.40;99.90;;;;;;4969345;28;20989;-77
2021/03/03 08:02:53;;;;;;;28.67;15.27;;;8.70;99.90;;;;;;4954926;28;20440;-76
2021/03/03 08:05:26;;;;;;;24.33;16.20;;;9.00;99.90;;;;;;4957534;28;20468;-76
2021/03/03 08:08:07;;;;;;;24.40;15.97;;;9.10;99.90;;;;;;4957755;28;20452;-77
2021/03/03 08:10:38;;;;;;;25.63;15.60;;;9.30;99.90;;;;;;4970595;28;20438;-77
2021/03/03 08:13:12;;;;;;;27.73;15.60;;;9.40;99.90;;;;;;4957782;28;20948;-76
2021/03/03 08:15:42;;;;;;;26.37;16.70;;;9.60;99.90;;;;;;4968240;28;20511;-76
2021/03/03 08:18:13;;;;;;;26.03;15.93;;;9.80;99.90;;;;;;4971415;28;20433;-76
2021/03/03 08:20:48;;;;;;;21.23;14.60;;;9.90;99.90;;;;;;4972359;28;21198;-76
2021/03/03 08:23:32;;;;;;;26.30;16.73;;;10.10;99.90;;;;;;4974493;28;20435;-76
2021/03/03 08:26:16;;;;;;;23.03;16.57;;;10.50;99.90;;;;;;4975410;28;20953;-77
2021/03/03 08:28:49;;;;;;;22.37;15.20;;;11.10;99.90;;;;;;4948894;28;20541;-76
2021/03/03 08:31:15;;;;;;;27.57;17.23;;;11.60;99.90;;;;;;4972429;28;20786;-76
2021/03/03 08:33:53;;;;;;;25.83;17.33;;;12.10;99.90;;;;;;4973408;28;20523;-76
2021/03/03 08:36:26;;;;;;;26.97;16.87;;;12.60;99.90;;;;;;4975654;28;20229;-77
2021/03/03 08:38:55;;;;;;;25.73;16.60;;;13.10;99.90;;;;;;4954010;28;20990;-76
2021/03/03 08:41:26;;;;;;;24.77;17.20;;;13.30;99.90;;;;;;4970980;28;20898;-77
2021/03/03 08:44:04;;;;;;;30.90;18.83;;;13.20;99.90;;;;;;4964014;28;20615;-77
2021/03/03 08:46:29;;;;;;;26.83;18.40;;;13.70;99.90;;;;;;4963773;28;20453;-77
2021/03/03 08:48:55;;;;;;;22.53;16.07;;;13.70;99.90;;;;;;4957074;28;20517;-77
2021/03/03 08:51:28;;;;;;;26.73;17.43;;;14.00;99.90;;;;;;4961549;28;20206;-76
2021/03/03 08:54:05;;;;;;;25.10;16.93;;;14.40;99.90;;;;;;4972246;28;20181;-77
2021/03/03 08:56:38;;;;;;;27.20;17.87;;;14.70;99.90;;;;;;4968614;28;20491;-76
2021/03/03 08:59:12;;;;;;;22.40;16.10;;;15.00;99.90;;;;;;4972207;28;20535;-77
2021/03/03 09:02:15;;;;;;;20.73;16.10;;;15.10;99.90;;;;;;4970266;28;20467;-77
2021/03/03 09:04:44;;;;;;;23.80;16.47;;;15.60;99.90;;;;;;4969683;28;20468;-77
2021/03/03 09:07:23;;;;;;;22.93;16.90;;;16.20;99.90;;;;;;4964035;28;20461;-77
2021/03/03 09:10:06;;;;;;;26.33;17.50;;;16.80;99.90;;;;;;4968145;28;20433;-77
2021/03/03 09:12:37;;;;;;;31.70;19.03;;;17.10;99.90;;;;;;4971391;28;20429;-77
2021/03/03 09:15:05;;;;;;;24.00;18.57;;;17.30;99.90;;;;;;4959591;28;20417;-77
2021/03/03 09:17:34;;;;;;;29.90;18.97;;;17.60;99.90;;;;;;4963860;28;20521;-77
2021/03/03 09:20:11;;;;;;;24.57;17.53;;;18.40;99.90;;;;;;4955325;28;20417;-77
2021/03/03 09:22:44;;;;;;;28.30;17.40;;;18.30;99.90;;;;;;4967464;28;20451;-76
2021/03/03 09:25:20;;;;;;;30.83;17.10;;;17.80;99.90;;;;;;4972828;28;20583;-77
2021/03/03 09:27:57;;;;;;;33.30;16.00;;;17.60;99.90;;;;;;4972369;28;20504;-77
2021/03/03 09:30:25;;;;;;;25.33;16.93;;;18.00;99.90;;;;;;4974108;28;20511;-76
2021/03/03 09:32:51;;;;;;;24.80;16.40;;;17.90;99.90;;;;;;4971882;28;20448;-77
2021/03/03 09:35:30;;;;;;;29.67;16.43;;;18.10;99.90;;;;;;4965489;28;20471;-77
2021/03/03 09:37:56;;;;;;;33.10;17.17;;;18.60;99.90;;;;;;4966401;28;20181;-76
2021/03/03 09:40:30;;;;;;;28.93;18.23;;;19.10;99.90;;;;;;4971993;28;20436;-77
2021/03/03 09:42:56;;;;;;;36.07;18.33;;;19.10;98.90;;;;;;4972184;28;20441;-76
2021/03/03 09:45:23;;;;;;;31.60;18.47;;;19.40;97.80;;;;;;4964729;28;20472;-77
2021/03/03 09:47:50;;;;;;;29.87;18.57;;;19.50;97.30;;;;;;4958252;28;20866;-77
2021/03/03 09:50:21;;;;;;;31.83;18.77;;;20.10;96.60;;;;;;4967595;28;20439;-77
2021/03/03 09:52:51;;;;;;;32.57;17.87;;;20.10;93.00;;;;;;4969511;28;20441;-77
2021/03/03 09:55:19;;;;;;;39.07;19.07;;;20.10;92.10;;;;;;4972217;28;20528;-77
2021/03/03 09:57:58;;;;;;;26.87;18.10;;;20.20;90.50;;;;;;4955275;28;20810;-77
2021/03/03 10:00:37;;;;;;;30.40;18.43;;;20.60;90.10;;;;;;4969662;28;20437;-77
2021/03/03 10:03:06;;;;;;;25.57;17.43;;;19.80;90.60;;;;;;4953648;28;20443;-77
2021/03/03 10:05:33;;;;;;;24.87;19.50;;;20.00;93.30;;;;;;4968093;28;21007;-77
2021/03/03 10:08:01;;;;;;;30.40;17.37;;;20.10;91.90;;;;;;4973446;28;20433;-77
2021/03/03 10:10:29;;;;;;;23.83;17.90;;;20.00;90.60;;;;;;4971978;28;20432;-77
2021/03/03 10:12:55;;;;;;;22.73;17.20;;;20.50;92.00;;;;;;4972525;28;20425;-77
2021/03/03 10:15:34;;;;;;;21.53;13.70;;;21.00;91.30;;;;;;4974464;28;20523;-77
2021/03/03 10:18:04;;;;;;;25.33;18.13;;;21.30;93.00;;;;;;4973656;28;20216;-77
2021/03/03 10:20:36;;;;;;;25.07;16.47;;;21.60;90.10;;;;;;4968724;28;20438;-77
2021/03/03 10:23:20;;;;;;;20.53;16.93;;;21.70;87.90;;;;;;4973950;28;20428;-77
2021/03/03 10:25:47;;;;;;;30.03;18.50;;;21.70;81.50;;;;;;4969949;28;20519;-77
2021/03/03 10:28:18;;;;;;;25.97;16.63;;;22.10;84.90;;;;;;4972914;28;20455;-77
2021/03/03 10:30:49;;;;;;;28.83;17.57;;;22.60;82.10;;;;;;4960810;28;20453;-77
2021/03/03 10:33:31;;;;;;;24.83;16.57;;;21.50;76.00;;;;;;4962559;28;20439;-77
2021/03/03 10:35:58;;;;;;;28.03;16.33;;;21.60;79.90;;;;;;4954440;28;20445;-77
2021/03/03 10:38:25;;;;;;;23.63;16.00;;;21.80;76.50;;;;;;4973801;28;20938;-77
2021/03/03 10:40:52;;;;;;;25.37;17.70;;;22.00;76.00;;;;;;4965038;28;20441;-77
2021/03/03 10:43:24;;;;;;;26.47;16.27;;;22.70;77.60;;;;;;4961429;28;20805;-77
2021/03/03 10:46:17;;;;;;;26.20;19.67;;;22.90;78.10;;;;;;4967877;28;20442;-77
2021/03/03 10:48:43;;;;;;;32.00;17.70;;;23.20;75.80;;;;;;4971669;28;20838;-77
2021/03/03 10:51:10;;;;;;;23.20;18.53;;;22.90;71.50;;;;;;4964752;28;20428;-77
2021/03/03 10:53:59;;;;;;;28.03;19.40;;;23.20;68.50;;;;;;4953894;28;20445;-77
2021/03/03 10:56:37;;;;;;;59.73;47.07;;;23.10;68.60;;;;;;4953192;28;20485;-77
2021/03/03 10:59:23;;;;;;;23.00;18.40;;;23.60;69.80;;;;;;4966513;28;20977;-77
2021/03/03 11:01:55;;;;;;;34.77;18.73;;;24.30;69.50;;;;;;4960004;28;20436;-77
2021/03/03 11:04:21;;;;;;;25.33;18.80;;;24.20;65.30;;;;;;4954023;28;20464;-77
2021/03/03 11:06:46;;;;;;;25.87;19.07;;;24.40;67.00;;;;;;4954189;28;20442;-76
2021/03/03 11:09:14;;;;;;;32.43;19.63;;;24.40;67.40;;;;;;4967560;28;20196;-77
2021/03/03 11:11:50;;;;;;;27.53;19.67;;;24.20;62.50;;;;;;4966537;28;20575;-77
2021/03/03 11:14:17;;;;;;;30.77;20.00;;;24.20;63.20;;;;;;4962191;28;20444;-77
2021/03/03 11:16:44;;;;;;;26.43;19.37;;;24.20;64.00;;;;;;4958047;28;20453;-77
2021/03/03 11:19:10;;;;;;;24.13;18.43;;;24.50;64.70;;;;;;4966353;28;20483;-77
2021/03/03 11:21:36;;;;;;;29.90;22.30;;;24.70;65.60;;;;;;4958953;28;20845;-77
2021/03/03 11:24:01;;;;;;;29.50;20.90;;;24.50;61.80;;;;;;4970580;28;20256;-77
2021/03/03 11:26:28;;;;;;;29.70;20.17;;;24.70;64.20;;;;;;4969154;28;20698;-77
2021/03/03 11:28:54;;;;;;;22.10;18.97;;;25.00;60.70;;;;;;4951388;28;20227;-77
2021/03/03 11:31:19;;;;;;;28.40;21.90;;;24.90;60.50;;;;;;4971767;28;20472;-77
2021/03/03 11:33:45;;;;;;;34.80;21.13;;;24.70;60.00;;;;;;4964969;28;20312;-77
2021/03/03 11:36:10;;;;;;;30.80;22.27;;;24.80;62.00;;;;;;4953834;28;20205;-77
2021/03/03 11:38:36;;;;;;;30.30;20.80;;;24.80;59.20;;;;;;4963649;28;20185;-77
2021/03/03 11:41:02;;;;;;;29.83;22.43;;;24.60;61.60;;;;;;4960364;28;20201;-77
2021/03/03 11:43:27;;;;;;;31.07;20.27;;;24.80;60.60;;;;;;4961227;28;20210;-77
2021/03/03 11:45:53;;;;;;;29.53;21.87;;;25.10;60.30;;;;;;4949407;28;20236;-77
2021/03/03 11:48:18;;;;;;;33.53;22.00;;;25.40;58.40;;;;;;4962045;28;20186;-77
2021/03/03 11:50:44;;;;;;;27.10;19.30;;;25.40;58.80;;;;;;4959605;28;20182;-77
2021/03/03 11:53:09;;;;;;;23.80;17.37;;;24.70;57.80;;;;;;4956502;28;20179;-77
2021/03/03 11:55:35;;;;;;;28.40;20.00;;;25.00;61.70;;;;;;4956109;28;20206;-77
2021/03/03 11:58:01;;;;;;;26.63;20.30;;;24.70;59.60;;;;;;4958715;28;20189;-76
2021/03/03 12:00:26;;;;;;;27.83;19.33;;;24.70;57.40;;;;;;4967423;28;20198;-77
2021/03/03 12:02:52;;;;;;;30.80;20.10;;;25.10;59.40;;;;;;4967660;28;20822;-77
2021/03/03 12:05:18;;;;;;;37.60;21.33;;;25.40;58.50;;;;;;4955678;28;20216;-76
2021/03/03 12:07:43;;;;;;;26.77;20.87;;;25.80;57.80;;;;;;4959371;28;20557;-77
2021/03/03 12:10:09;;;;;;;27.40;19.80;;;25.70;57.80;;;;;;4969520;28;20178;-77
2021/03/03 12:12:35;;;;;;;31.47;21.33;;;25.80;58.10;;;;;;4967555;28;20182;-77
2021/03/03 12:15:00;;;;;;;25.93;19.70;;;25.80;57.30;;;;;;4971753;28;20520;-77
2021/03/03 12:17:27;;;;;;;27.57;19.70;;;26.00;55.00;;;;;;4970562;28;20218;-77
2021/03/03 12:19:53;;;;;;;29.90;20.00;;;26.00;54.50;;;;;;4955897;28;20185;-77
2021/03/03 12:22:19;;;;;;;30.00;19.93;;;26.10;55.50;;;;;;4966700;28;20444;-77
2021/03/03 12:24:44;;;;;;;32.80;21.00;;;26.30;53.60;;;;;;4968888;28;20456;-77
2021/03/03 12:27:10;;;;;;;31.00;21.20;;;25.60;51.40;;;;;;4970203;28;20684;-77
2021/03/03 12:29:36;;;;;;;24.77;18.80;;;25.90;53.90;;;;;;4962904;28;20178;-77
2021/03/03 12:32:02;;;;;;;27.07;18.57;;;26.10;53.10;;;;;;4963622;28;20182;-77
2021/03/03 12:34:27;;;;;;;32.70;19.03;;;26.20;53.30;;;;;;4961049;28;20204;-76
2021/03/03 12:36:53;;;;;;;30.90;19.57;;;26.20;53.60;;;;;;4960717;28;20445;-76
2021/03/03 12:39:19;;;;;;;25.50;18.80;;;26.20;55.50;;;;;;4963270;28;20177;-76